createdAt,value
2019-06-26T00:01:56.338Z,7.23
2019-06-26T00:04:30.767Z,7.58
2019-06-26T00:07:04.414Z,7.05
2019-06-26T00:09:38.742Z,7.55
2019-06-26T00:12:14.666Z,7.12
2019-06-26T00:14:46.901Z,7.78
2019-06-26T00:17:21.665Z,7.50
2019-06-26T00:19:56.393Z,7.90
2019-06-26T00:22:30.917Z,7.30
2019-06-26T00:25:03.301Z,7.12
2019-06-26T00:27:36.960Z,7.08
2019-06-26T00:30:30.199Z,7.67
2019-06-26T00:33:01.899Z,7.87
2019-06-26T00:35:34.790Z,7.53
2019-06-26T00:38:09.418Z,7.70
2019-06-26T00:40:43.844Z,7.67
2019-06-26T00:43:17.258Z,7.62
2019-06-26T00:45:50.850Z,7.53
2019-06-26T00:48:25.632Z,7.12
2019-06-26T00:51:01.897Z,7.35
2019-06-26T00:53:35.946Z,7.12
2019-06-26T00:56:09.771Z,7.62
2019-06-26T00:58:43.774Z,7.90
2019-06-26T01:01:17.510Z,7.60
2019-06-26T01:03:53.598Z,7.28
2019-06-26T01:06:45.409Z,7.22
2019-06-26T01:09:19.859Z,7.10
2019-06-26T01:11:53.554Z,7.55
2019-06-26T01:14:26.638Z,7.22
2019-06-26T01:16:59.871Z,6.72
2019-06-26T01:19:34.563Z,6.80
2019-06-26T01:22:08.217Z,6.92
2019-06-26T01:24:41.863Z,6.95
2019-06-26T01:27:16.223Z,7.12
2019-06-26T01:29:48.868Z,7.07
2019-06-26T01:32:25.536Z,7.30
2019-06-26T01:34:58.939Z,7.03
2019-06-26T01:37:33.051Z,6.58
2019-06-26T01:40:08.199Z,6.90
2019-06-26T01:42:44.060Z,7.30
2019-06-26T01:45:18.001Z,6.40
2019-06-26T01:47:51.086Z,7.05
2019-06-26T01:50:26.333Z,7.22
2019-06-26T01:52:59.886Z,7.40
2019-06-26T01:55:34.828Z,7.80
2019-06-26T01:58:10.013Z,7.75
2019-06-26T02:00:45.294Z,6.87
2019-06-26T02:03:18.078Z,7.78
2019-06-26T02:05:51.859Z,7.62
2019-06-26T02:08:24.515Z,7.22
2019-06-26T02:10:58.464Z,7.17
2019-06-26T02:13:31.660Z,7.42
2019-06-26T02:16:27.914Z,8.05
2019-06-26T02:19:02.606Z,8.15
2019-06-26T02:21:35.718Z,7.43
2019-06-26T02:24:09.755Z,7.43
2019-06-26T02:26:43.122Z,7.17
2019-06-26T02:29:15.845Z,7.60
2019-06-26T02:31:48.238Z,7.60
2019-06-26T02:34:23.495Z,7.70
2019-06-26T02:36:57.094Z,7.60
2019-06-26T02:39:29.651Z,7.33
2019-06-26T02:42:02.224Z,6.80
2019-06-26T02:44:52.300Z,7.13
2019-06-26T02:47:20.218Z,7.20
2019-06-26T02:49:48.963Z,7.20
2019-06-26T02:52:22.932Z,7.57
2019-06-26T02:54:55.545Z,7.83
2019-06-26T02:57:28.285Z,7.40
2019-06-26T03:00:02.143Z,7.17
2019-06-26T03:02:35.199Z,7.53
2019-06-26T03:05:28.907Z,7.63
2019-06-26T03:08:01.935Z,6.95
2019-06-26T03:10:35.013Z,6.90
2019-06-26T03:13:07.575Z,6.93
2019-06-26T03:15:40.686Z,7.33
2019-06-26T03:18:12.950Z,7.47
2019-06-26T03:20:57.654Z,6.90
2019-06-26T03:23:43.961Z,6.77
2019-06-26T03:26:13.446Z,7.23
2019-06-26T03:28:46.756Z,7.33
2019-06-26T03:31:23.856Z,7.70
2019-06-26T03:33:58.997Z,7.57
2019-06-26T03:36:31.981Z,7.17
2019-06-26T03:39:07.718Z,7.23
2019-06-26T03:44:32.287Z,7.37
2019-06-26T03:47:05.644Z,7.33
2019-06-26T03:49:38.447Z,7.47
2019-06-26T03:52:12.759Z,7.00
2019-06-26T03:54:45.921Z,7.63
2019-06-26T03:57:17.803Z,7.67
2019-06-26T03:59:51.180Z,6.97
2019-06-26T04:02:23.307Z,7.03
2019-06-26T04:04:56.195Z,7.67
2019-06-26T04:07:27.957Z,7.23
2019-06-26T04:10:01.455Z,6.92
2019-06-26T04:12:35.021Z,6.90
2019-06-26T04:15:09.008Z,8.33
2019-06-26T04:17:43.690Z,8.40
2019-06-26T04:20:16.051Z,7.20
2019-06-26T04:22:48.262Z,6.80
2019-06-26T04:25:20.496Z,7.30
2019-06-26T04:27:54.764Z,7.35
2019-06-26T04:30:27.043Z,7.40
2019-06-26T04:32:59.614Z,6.90
2019-06-26T04:35:32.313Z,6.53
2019-06-26T04:38:04.391Z,6.90
2019-06-26T04:40:37.866Z,7.03
2019-06-26T04:43:10.599Z,6.10
2019-06-26T04:45:57.266Z,6.92
2019-06-26T04:48:18.655Z,6.30
2019-06-26T04:50:52.693Z,6.75
2019-06-26T04:53:26.208Z,6.37
2019-06-26T04:56:01.962Z,6.22
2019-06-26T04:58:34.847Z,6.25
2019-06-26T05:01:07.470Z,7.15
2019-06-26T05:03:41.217Z,6.42
2019-06-26T05:06:13.847Z,6.30
2019-06-26T05:08:49.218Z,6.00
2019-06-26T05:11:28.589Z,5.83
2019-06-26T05:14:02.596Z,6.03
2019-06-26T05:16:41.972Z,5.75
2019-06-26T05:19:15.604Z,6.00
2019-06-26T05:21:49.545Z,5.75
2019-06-26T05:24:22.318Z,5.50
2019-06-26T05:26:56.188Z,6.05
2019-06-26T05:29:28.452Z,5.72
2019-06-26T05:32:01.138Z,5.75
2019-06-26T05:34:33.655Z,5.90
2019-06-26T05:37:06.245Z,5.78
2019-06-26T05:39:40.255Z,5.90
2019-06-26T05:42:17.028Z,6.30
2019-06-26T05:44:51.350Z,5.97
2019-06-26T05:47:25.633Z,5.58
2019-06-26T05:49:59.165Z,5.58
2019-06-26T05:52:43.585Z,5.40
2019-06-26T05:55:19.296Z,5.45
2019-06-26T05:57:54.996Z,5.87
2019-06-26T06:00:29.274Z,5.40
2019-06-26T06:03:01.734Z,5.28
2019-06-26T06:05:36.443Z,5.53
2019-06-26T06:08:10.895Z,5.17
2019-06-26T06:10:48.278Z,5.12
2019-06-26T06:13:49.266Z,5.25
2019-06-26T06:16:25.864Z,5.03
2019-06-26T06:19:00.853Z,5.50
2019-06-26T06:21:35.895Z,4.92
2019-06-26T06:24:08.286Z,5.72
2019-06-26T06:26:42.621Z,5.58
2019-06-26T06:29:20.258Z,5.75
2019-06-26T06:31:52.679Z,5.50
2019-06-26T06:34:25.325Z,5.75
2019-06-26T06:36:58.854Z,5.50
2019-06-26T06:39:31.399Z,5.42
2019-06-26T06:42:05.369Z,5.22
2019-06-26T06:44:46.532Z,5.17
2019-06-26T06:47:20.725Z,5.00
2019-06-26T06:49:53.175Z,5.30
2019-06-26T06:52:33.276Z,4.70
2019-06-26T06:55:09.480Z,5.00
2019-06-26T06:57:49.984Z,5.10
2019-06-26T07:00:29.022Z,4.80
2019-06-26T07:03:09.188Z,5.10
2019-06-26T07:05:45.758Z,5.20
2019-06-26T07:09:06.299Z,4.40
2019-06-26T07:12:31.831Z,5.20
2019-06-26T07:15:16.685Z,4.70
2019-06-26T07:17:53.770Z,5.07
2019-06-26T07:20:30.194Z,5.07
2019-06-26T07:23:04.434Z,5.30
2019-06-26T07:25:43.327Z,5.47
2019-06-26T07:31:25.350Z,4.83
2019-06-26T07:34:07.113Z,5.15
2019-06-26T07:37:31.899Z,4.80
2019-06-26T07:40:05.420Z,5.10
2019-06-26T07:42:37.471Z,5.30
2019-06-26T07:45:14.992Z,5.20
2019-06-26T07:47:47.095Z,5.23
2019-06-26T07:50:20.573Z,5.20
2019-06-26T07:52:52.813Z,4.60
2019-06-26T07:55:24.771Z,5.20
2019-06-26T07:57:58.373Z,4.93
2019-06-26T08:00:31.679Z,4.87
2019-06-26T08:03:10.208Z,4.97
2019-06-26T08:05:43.229Z,4.97
2019-06-26T08:08:15.143Z,4.83
2019-06-26T08:10:47.119Z,4.60
2019-06-26T08:13:21.333Z,4.77
2019-06-26T08:15:54.297Z,4.97
2019-06-26T08:18:26.302Z,4.83
2019-06-26T08:21:11.458Z,4.93
2019-06-26T08:23:33.910Z,4.33
2019-06-26T08:26:05.925Z,4.50
2019-06-26T08:28:37.926Z,5.00
2019-06-26T08:31:10.264Z,5.17
2019-06-26T08:33:42.414Z,5.20
2019-06-26T08:36:17.221Z,4.87
2019-06-26T08:38:49.604Z,5.20
2019-06-26T08:41:21.746Z,4.70
2019-06-26T08:43:54.149Z,5.00
2019-06-26T08:46:26.042Z,4.90
2019-06-26T08:48:58.329Z,5.70
2019-06-26T08:51:31.406Z,5.03
2019-06-26T08:54:05.446Z,5.03
2019-06-26T08:56:39.711Z,4.78
2019-06-26T08:59:12.140Z,5.20
2019-06-26T09:01:44.968Z,4.90
2019-06-26T09:04:18.260Z,5.10
2019-06-26T09:06:50.519Z,4.97
2019-06-26T09:09:22.751Z,4.37
2019-06-26T09:11:54.815Z,4.97
2019-06-26T09:14:27.766Z,5.47
2019-06-26T09:17:00.559Z,4.92
2019-06-26T09:19:42.336Z,4.83
2019-06-26T09:22:15.820Z,4.83
2019-06-26T09:24:52.500Z,4.97
2019-06-26T09:27:28.081Z,4.93
2019-06-26T09:30:08.207Z,5.10
2019-06-26T09:32:42.737Z,4.70
2019-06-26T09:35:32.805Z,4.77
2019-06-26T09:38:13.981Z,4.37
2019-06-26T09:47:22.377Z,4.70
2019-06-26T09:49:57.525Z,4.70
2019-06-26T09:52:34.196Z,4.80
2019-06-26T09:55:47.293Z,4.40
2019-06-26T10:02:31.883Z,4.87
2019-06-26T10:05:23.475Z,4.33
2019-06-26T10:10:54.159Z,4.45
2019-06-26T10:13:26.503Z,4.90
2019-06-26T10:16:24.469Z,4.80
2019-06-26T10:19:09.515Z,4.25
2019-06-26T10:21:34.742Z,4.58
2019-06-26T10:24:10.036Z,4.47
2019-06-26T10:26:44.652Z,4.83
2019-06-26T10:29:19.553Z,4.78
2019-06-26T10:31:51.832Z,4.17
2019-06-26T10:34:24.133Z,4.03
2019-06-26T10:36:56.635Z,4.62
2019-06-26T10:40:16.143Z,4.95
2019-06-26T10:43:18.624Z,5.00
2019-06-26T10:46:29.585Z,4.65
2019-06-26T10:49:25.944Z,4.45
2019-06-26T10:51:45.090Z,4.03
2019-06-26T10:54:20.383Z,4.42
2019-06-26T10:56:58.301Z,4.62
2019-06-26T10:59:37.742Z,4.20
2019-06-26T11:02:10.984Z,4.10
2019-06-26T11:04:52.524Z,4.47
2019-06-26T11:07:32.196Z,4.75
2019-06-26T11:10:22.892Z,4.90
2019-06-26T11:12:56.200Z,4.20
2019-06-26T11:15:42.253Z,4.57
2019-06-26T11:18:26.353Z,4.47
2019-06-26T11:21:12.787Z,4.10
2019-06-26T11:23:51.584Z,5.00
2019-06-26T11:26:26.632Z,4.30
2019-06-26T11:29:06.140Z,4.30
2019-06-26T11:32:03.739Z,4.10
2019-06-26T11:34:53.379Z,4.25
2019-06-26T11:37:38.757Z,4.28
2019-06-26T11:40:29.820Z,11.80
2019-06-26T11:43:09.030Z,4.47
2019-06-26T11:45:58.852Z,4.30
2019-06-26T11:48:52.145Z,4.40
2019-06-26T11:51:42.880Z,4.40
2019-06-26T11:54:42.819Z,4.62
2019-06-26T11:57:24.337Z,4.50
2019-06-26T12:00:14.829Z,4.63
2019-06-26T12:03:02.829Z,4.55
2019-06-26T12:05:43.078Z,4.87
2019-06-26T12:08:26.660Z,4.83
2019-06-26T12:11:04.087Z,4.53
2019-06-26T12:13:37.488Z,4.87
2019-06-26T12:16:13.595Z,4.83
2019-06-26T12:18:50.684Z,5.00
2019-06-26T12:21:24.284Z,4.95
2019-06-26T12:23:57.476Z,4.97
2019-06-26T12:26:33.521Z,4.90
2019-06-26T12:29:06.460Z,4.80
2019-06-26T12:31:47.334Z,4.95
2019-06-26T12:34:21.038Z,6.67
2019-06-26T12:37:06.413Z,5.50
2019-06-26T12:39:42.538Z,5.33
2019-06-26T12:42:18.832Z,5.62
2019-06-26T12:44:53.876Z,5.12
2019-06-26T12:47:31.499Z,5.28
2019-06-26T12:50:08.635Z,5.12
2019-06-26T12:52:50.489Z,5.28
2019-06-26T12:55:23.794Z,5.37
2019-06-26T12:58:11.586Z,5.65
2019-06-26T13:00:30.861Z,5.65
2019-06-26T13:03:10.461Z,5.33
2019-06-26T13:05:50.285Z,5.85
2019-06-26T13:08:54.118Z,4.95
2019-06-26T13:11:48.778Z,5.35
2019-06-26T13:14:25.344Z,5.12
2019-06-26T13:17:10.962Z,5.42
2019-06-26T13:19:57.068Z,5.70
2019-06-26T13:22:36.903Z,5.67
2019-06-26T13:25:10.858Z,5.72
2019-06-26T13:28:01.597Z,5.33
2019-06-26T13:30:45.343Z,5.83
2019-06-26T13:33:21.769Z,6.10
2019-06-26T13:35:57.402Z,5.70
2019-06-26T13:38:32.494Z,5.60
2019-06-26T13:41:05.867Z,5.40
2019-06-26T13:43:41.229Z,6.03
2019-06-26T13:46:15.274Z,6.08
2019-06-26T13:48:52.542Z,5.95
2019-06-26T13:51:30.480Z,6.08
2019-06-26T13:54:07.436Z,5.65
2019-06-26T13:57:03.180Z,6.08
2019-06-26T13:59:41.240Z,6.17
2019-06-26T14:02:23.383Z,6.03
2019-06-26T14:04:56.304Z,5.45
2019-06-26T14:10:49.563Z,5.03
2019-06-26T14:16:40.223Z,4.65
2019-06-26T14:19:17.126Z,5.53
2019-06-26T14:22:05.238Z,5.20
2019-06-26T14:24:40.699Z,5.10
2019-06-26T14:27:15.305Z,4.90
2019-06-26T14:29:51.387Z,5.33
2019-06-26T14:32:26.943Z,5.45
2019-06-26T14:35:10.653Z,4.90
2019-06-26T14:37:58.004Z,4.90
2019-06-26T14:40:32.259Z,5.05
2019-06-26T14:43:12.255Z,5.50
2019-06-26T14:46:03.427Z,5.10
2019-06-26T14:48:36.998Z,4.85
2019-06-26T14:51:13.280Z,4.95
2019-06-26T14:53:45.794Z,4.80
2019-06-26T14:56:32.299Z,5.10
2019-06-26T14:59:11.464Z,6.10
2019-06-26T15:01:45.457Z,6.03
2019-06-26T15:04:19.942Z,5.00
2019-06-26T15:07:02.453Z,5.42
2019-06-26T15:09:40.670Z,5.17
2019-06-26T15:12:24.823Z,5.10
2019-06-26T15:15:01.052Z,5.30
2019-06-26T15:17:34.486Z,6.90
2019-06-26T15:20:11.731Z,5.58
2019-06-26T15:23:16.414Z,5.50
2019-06-26T15:26:26.658Z,4.55
2019-06-26T15:29:06.843Z,5.87
2019-06-26T15:31:41.305Z,4.90
2019-06-26T15:34:14.486Z,4.55
2019-06-26T15:36:54.762Z,5.47
2019-06-26T15:39:28.347Z,5.53
2019-06-26T15:42:36.528Z,6.00
2019-06-26T15:45:14.117Z,5.90
2019-06-26T15:47:48.878Z,5.47
2019-06-26T15:50:35.317Z,5.60
2019-06-26T15:53:29.949Z,5.50
2019-06-26T15:56:37.528Z,6.55
2019-06-26T15:59:24.372Z,5.78
2019-06-26T16:02:02.256Z,5.90
2019-06-26T16:04:46.918Z,5.95
2019-06-26T16:07:21.078Z,6.15
2019-06-26T16:09:54.909Z,5.85
2019-06-26T16:12:29.671Z,5.92
2019-06-26T16:15:08.958Z,5.90
2019-06-26T16:17:44.976Z,5.72
2019-06-26T16:20:20.486Z,5.80
2019-06-26T16:22:53.924Z,6.00
2019-06-26T16:25:28.767Z,5.90
2019-06-26T16:28:10.671Z,5.85
2019-06-26T16:30:46.157Z,6.00
2019-06-26T16:33:23.218Z,6.53
2019-06-26T16:36:00.257Z,6.33
2019-06-26T16:38:54.160Z,6.17
2019-06-26T16:44:25.844Z,6.58
2019-06-26T16:50:07.024Z,6.95
2019-06-26T16:52:49.362Z,6.65
2019-06-26T16:55:16.098Z,5.70
2019-06-26T17:00:36.335Z,5.75
2019-06-26T17:03:09.509Z,6.00
2019-06-26T17:05:43.811Z,6.08
2019-06-26T17:11:23.790Z,6.00
2019-06-26T17:14:03.315Z,5.92
2019-06-26T17:16:47.566Z,5.75
2019-06-26T17:19:22.620Z,5.90
2019-06-26T17:22:03.741Z,5.10
2019-06-26T17:24:38.112Z,5.55
2019-06-26T17:27:13.044Z,5.70
2019-06-26T17:29:45.711Z,5.55
2019-06-26T17:32:18.432Z,5.47
2019-06-26T17:34:52.367Z,5.83
2019-06-26T17:40:29.158Z,5.67
2019-06-26T17:43:12.435Z,5.58
2019-06-26T17:45:42.290Z,5.80
2019-06-26T17:48:15.769Z,5.80
2019-06-26T17:50:50.891Z,5.95
2019-06-26T17:53:24.659Z,6.00
2019-06-26T17:55:57.031Z,5.58
2019-06-26T17:58:31.236Z,5.92
2019-06-26T18:01:03.603Z,6.10
2019-06-26T18:03:36.822Z,6.12
2019-06-26T18:06:09.744Z,5.70
2019-06-26T18:08:45.032Z,5.78
2019-06-26T18:11:20.796Z,6.20
2019-06-26T18:13:53.831Z,5.85
2019-06-26T18:16:46.980Z,6.20
2019-06-26T18:19:38.082Z,7.20
2019-06-26T18:22:12.811Z,6.10
2019-06-26T18:24:47.951Z,6.00
2019-06-26T18:27:21.156Z,5.87
2019-06-26T18:29:55.135Z,5.92
2019-06-26T18:32:31.932Z,6.22
2019-06-26T18:35:07.427Z,6.40
2019-06-26T18:37:50.684Z,6.10
2019-06-26T18:40:25.698Z,5.67
2019-06-26T18:43:02.317Z,6.05
2019-06-26T18:45:36.200Z,6.15
2019-06-26T18:48:09.894Z,6.05
2019-06-26T18:50:43.829Z,6.28
2019-06-26T18:53:21.362Z,6.08
2019-06-26T18:55:55.933Z,6.00
2019-06-26T18:58:32.998Z,6.28
2019-06-26T19:01:07.727Z,5.92
2019-06-26T19:03:45.057Z,6.50
2019-06-26T19:06:18.065Z,6.25
2019-06-26T19:08:53.981Z,6.33
2019-06-26T19:11:29.841Z,6.50
2019-06-26T19:14:08.955Z,6.58
2019-06-26T19:16:50.590Z,6.20
2019-06-26T19:19:25.460Z,6.17
2019-06-26T19:22:23.377Z,6.40
2019-06-26T19:24:58.279Z,6.05
2019-06-26T19:27:39.629Z,5.92
2019-06-26T19:30:14.239Z,6.37
2019-06-26T19:32:52.628Z,6.15
2019-06-26T19:35:30.264Z,5.90
2019-06-26T19:38:03.548Z,6.03
2019-06-26T19:40:48.513Z,6.72
2019-06-26T19:43:24.695Z,6.60
2019-06-26T19:46:21.500Z,6.28
2019-06-26T19:48:57.507Z,6.15
2019-06-26T19:51:32.723Z,6.20
2019-06-26T19:54:08.780Z,6.83
2019-06-26T19:56:44.948Z,6.62
2019-06-26T19:59:19.086Z,6.50
2019-06-26T20:01:52.991Z,6.33
2019-06-26T20:04:29.118Z,5.83
2019-06-26T20:07:04.062Z,6.45
2019-06-26T20:10:06.058Z,6.58
2019-06-26T20:12:44.506Z,6.10
2019-06-26T20:15:20.352Z,6.10
2019-06-26T20:17:59.462Z,6.67
2019-06-26T20:20:33.745Z,5.80
2019-06-26T20:23:08.630Z,6.12
2019-06-26T20:25:42.853Z,6.08
2019-06-26T20:28:18.104Z,6.03
2019-06-26T20:30:51.945Z,5.75
2019-06-26T20:33:25.134Z,5.47
2019-06-26T20:35:59.898Z,6.17
2019-06-26T20:38:34.424Z,5.87
2019-06-26T20:41:08.295Z,6.40
2019-06-26T20:43:43.690Z,6.35
2019-06-26T20:46:23.614Z,6.53
2019-06-26T20:48:57.464Z,6.17
2019-06-26T20:51:33.107Z,6.42
2019-06-26T20:54:07.247Z,6.12
2019-06-26T20:57:02.278Z,6.62
2019-06-26T20:59:36.731Z,6.15
2019-06-26T21:02:10.184Z,6.72
2019-06-26T21:04:42.399Z,6.33
2019-06-26T21:07:15.950Z,6.50
2019-06-26T21:09:51.468Z,7.30
2019-06-26T21:12:24.692Z,7.20
2019-06-26T21:14:58.417Z,6.53
2019-06-26T21:17:32.580Z,6.92
2019-06-26T21:20:08.008Z,6.45
2019-06-26T21:22:42.298Z,6.60
2019-06-26T21:25:18.941Z,6.70
2019-06-26T21:27:52.637Z,6.80
2019-06-26T21:30:25.534Z,7.28
2019-06-26T21:32:58.124Z,6.42
2019-06-26T21:35:32.103Z,6.75
2019-06-26T21:38:04.814Z,6.47
2019-06-26T21:40:37.140Z,6.40
2019-06-26T21:43:12.594Z,6.92
2019-06-26T21:45:45.929Z,6.58
2019-06-26T21:48:21.739Z,6.72
2019-06-26T21:50:57.602Z,6.60
2019-06-26T21:53:29.828Z,6.33
2019-06-26T21:56:21.905Z,6.50
2019-06-26T21:59:14.857Z,6.70
2019-06-26T22:02:06.375Z,6.55
2019-06-26T22:04:54.358Z,6.45
2019-06-26T22:07:29.889Z,6.10
2019-06-26T22:10:10.280Z,6.62
2019-06-26T22:12:45.946Z,6.58
2019-06-26T22:15:19.871Z,6.40
2019-06-26T22:17:53.586Z,6.22
2019-06-26T22:20:26.788Z,6.65
2019-06-26T22:22:59.493Z,6.47
2019-06-26T22:25:46.660Z,6.37
2019-06-26T22:28:09.675Z,6.80
2019-06-26T22:30:44.388Z,6.33
2019-06-26T22:33:16.731Z,6.50
2019-06-26T22:35:49.917Z,7.17
2019-06-26T22:38:24.023Z,6.80
2019-06-26T22:40:57.163Z,6.42
2019-06-26T22:43:32.030Z,6.25
2019-06-26T22:46:05.424Z,7.53
2019-06-26T22:48:39.797Z,6.70
2019-06-26T22:51:13.205Z,6.67
2019-06-26T22:53:48.229Z,6.28
2019-06-26T22:56:21.537Z,6.80
2019-06-26T22:58:55.378Z,6.60
2019-06-26T23:01:28.315Z,6.87
2019-06-26T23:04:01.891Z,6.33
2019-06-26T23:06:37.414Z,6.30
2019-06-26T23:09:11.689Z,6.67
2019-06-26T23:11:44.216Z,6.85
2019-06-26T23:14:25.723Z,6.60
2019-06-26T23:17:00.499Z,6.78
2019-06-26T23:19:33.030Z,6.78
2019-06-26T23:22:05.664Z,7.40
2019-06-26T23:24:38.331Z,7.10
2019-06-26T23:27:11.871Z,7.05
2019-06-26T23:29:44.787Z,7.05
2019-06-26T23:32:19.166Z,6.40
2019-06-26T23:34:51.598Z,7.03
2019-06-26T23:37:25.442Z,7.10
2019-06-26T23:39:58.160Z,7.10
2019-06-26T23:42:30.393Z,7.10
2019-06-26T23:45:05.786Z,6.87
2019-06-26T23:47:39.950Z,6.87
2019-06-26T23:50:12.557Z,6.72
2019-06-26T23:52:45.925Z,6.55
2019-06-26T23:55:20.153Z,6.70
2019-06-26T23:57:59.011Z,6.67
